Terminal Aerodrome Forecast
Issued by NWS Detroit/Pontiac, MI

Home | Current Version | Previous Version | Text Only | Print | Product List | Glossary On
Versions: 1 2 3 4 5 6 7 8 9 10 11 12 13 14 15 16 17 18 19 20 21
898
FTUS43 KDTX 111805 AAA
TAFFNT
TAF AMD
KFNT 111805Z 1118/1218 14005KT 6SM -SHSN OVC020
     FM112200 16005KT 4SM -SN FEW012 OVC020
     FM120000 14005KT 1SM -SN SCT006 OVC012
      TEMPO 1201/1205 1/2SM SN FZFG OVC009
     FM120500 VRB04KT 2SM -SN OVC012
     FM120800 30012G22KT 4SM -SHSN BKN025 OVC035
     FM121200 31018G30KT P6SM OVC035=

USA.gov is the U.S. government's official web portal to all federal, state and local government web resources and services.